Time;durP1;ratioP1;P1;durP2;ratioP2;P2;SDS_P1;SDS_P2;PMS_P1;PMS_P2;Temp;Humidity;BMP_temperature;BMP_pressure;BME280_temperature;BME280_humidity;BME280_pressure;Samples;Min_cycle;Max_cycle;Signal;HPM_P1;HPM_P2
2022/01/25 00:08:26;;;;;;;15.70;10.63;;;-1.50;99.90;;;;;;5068060;28;20204;-75
2022/01/25 00:25:06;;;;;;;17.67;11.02;;;-1.60;99.90;;;;;;5067501;28;20254;-75
2022/01/25 00:27:49;;;;;;;14.07;10.35;;;-1.60;99.90;;;;;;5068112;28;20257;-75
2022/01/25 00:30:44;;;;;;;15.55;10.93;;;-1.60;99.90;;;;;;5067399;28;20215;-74
2022/01/25 00:33:11;;;;;;;15.65;10.73;;;-1.60;99.90;;;;;;5067595;28;20763;-75
2022/01/25 00:35:38;;;;;;;15.27;10.80;;;-1.70;99.90;;;;;;5067922;28;20673;-74
2022/01/25 00:38:05;;;;;;;14.57;9.80;;;-1.70;99.90;;;;;;5067482;28;20208;-73
2022/01/25 00:40:33;;;;;;;16.85;10.93;;;-1.60;99.90;;;;;;5068210;28;20212;-73
2022/01/25 00:42:59;;;;;;;17.63;11.85;;;-1.60;99.90;;;;;;5066678;28;20579;-74
2022/01/25 00:45:28;;;;;;;15.32;11.13;;;-1.60;99.90;;;;;;5067562;28;20228;-74
2022/01/25 00:47:55;;;;;;;17.75;11.35;;;-1.50;99.90;;;;;;5067105;28;20210;-74
2022/01/25 00:50:23;;;;;;;15.80;11.02;;;-1.50;99.90;;;;;;5068026;28;20330;-73
2022/01/25 00:55:35;;;;;;;14.90;10.75;;;-1.60;99.90;;;;;;5067286;28;20231;-75
2022/01/25 00:58:03;;;;;;;14.77;10.18;;;-1.60;99.90;;;;;;5067793;28;20208;-73
2022/01/25 01:00:30;;;;;;;15.45;11.43;;;-1.60;99.90;;;;;;5067389;28;20322;-73
2022/01/25 01:02:56;;;;;;;14.45;9.73;;;-1.70;99.90;;;;;;5066584;28;20200;-75
2022/01/25 01:05:24;;;;;;;14.85;10.63;;;-1.70;99.90;;;;;;5067861;28;20239;-73
2022/01/25 01:07:51;;;;;;;17.38;11.30;;;-1.70;99.90;;;;;;5067448;28;20201;-73
2022/01/25 01:10:21;;;;;;;21.05;9.65;;;-1.70;99.90;;;;;;5067593;28;20690;-75
2022/01/25 01:15:40;;;;;;;15.15;10.88;;;-1.70;99.90;;;;;;5066226;28;20305;-73
2022/01/25 01:43:16;;;;;;;14.35;10.95;;;-1.80;99.90;;;;;;5049952;28;20248;-76
2022/01/25 01:45:54;;;;;;;16.20;12.05;;;-1.80;99.90;;;;;;5050341;28;20820;-73
2022/01/25 01:48:30;;;;;;;17.05;10.60;;;-1.80;99.90;;;;;;5050856;28;20213;-76
2022/01/25 01:51:03;;;;;;;14.10;10.60;;;-1.80;99.90;;;;;;5050331;28;20303;-75
2022/01/25 01:53:31;;;;;;;16.02;10.75;;;-1.80;99.90;;;;;;5050479;28;20221;-75
2022/01/25 01:55:58;;;;;;;18.23;10.63;;;-1.90;99.90;;;;;;5048438;28;20221;-76
2022/01/25 01:58:25;;;;;;;16.88;11.13;;;-1.90;99.90;;;;;;5050732;28;20215;-75
2022/01/25 02:00:53;;;;;;;17.90;11.27;;;-1.90;99.90;;;;;;5050295;28;20201;-75
2022/01/25 02:03:20;;;;;;;17.73;12.35;;;-2.00;99.90;;;;;;5049555;28;20607;-76
2022/01/25 02:05:47;;;;;;;14.93;10.60;;;-2.00;99.90;;;;;;5049551;28;20217;-76
2022/01/25 02:08:14;;;;;;;17.27;11.25;;;-2.00;99.90;;;;;;5049931;28;20204;-76
2022/01/25 02:10:41;;;;;;;17.15;11.65;;;-2.00;99.90;;;;;;5051440;28;20205;-76
2022/01/25 02:13:10;;;;;;;17.80;11.85;;;-2.10;99.90;;;;;;5049697;28;20232;-75
2022/01/25 02:15:38;;;;;;;14.90;11.32;;;-2.00;99.90;;;;;;5049734;28;20225;-76
2022/01/25 02:23:43;;;;;;;16.35;11.75;;;-2.10;99.90;;;;;;5069818;28;20211;-75
2022/01/25 02:26:11;;;;;;;17.05;12.38;;;-2.10;99.90;;;;;;5070330;28;20224;-75
2022/01/25 02:28:41;;;;;;;16.40;11.32;;;-2.20;99.90;;;;;;5068062;28;20201;-75
2022/01/25 02:31:09;;;;;;;16.58;12.10;;;-2.20;99.90;;;;;;5053996;28;20212;-74
2022/01/25 02:33:36;;;;;;;18.58;12.00;;;-2.20;99.90;;;;;;5048619;28;20225;-75
2022/01/25 02:36:10;;;;;;;23.70;12.75;;;-2.20;99.90;;;;;;5053899;28;20232;-74
2022/01/25 02:38:37;;;;;;;14.60;9.70;;;-2.20;99.90;;;;;;5053873;28;20205;-75
2022/01/25 02:41:04;;;;;;;18.45;11.68;;;-2.20;99.90;;;;;;5053923;28;20216;-75
2022/01/25 02:43:34;;;;;;;15.50;11.95;;;-2.20;99.90;;;;;;5053708;28;20201;-75
2022/01/25 02:48:53;;;;;;;17.20;12.02;;;-2.20;99.90;;;;;;5036179;28;20191;-75
2022/01/25 02:51:22;;;;;;;17.52;11.98;;;-2.20;99.90;;;;;;5053893;28;20691;-75
2022/01/25 02:53:49;;;;;;;16.30;11.77;;;-2.20;99.90;;;;;;5053514;28;20227;-75
2022/01/25 02:56:16;;;;;;;22.70;12.02;;;-2.20;99.90;;;;;;5071729;28;20217;-75
2022/01/25 02:58:43;;;;;;;18.65;12.73;;;-2.20;99.90;;;;;;5078371;28;20197;-74
2022/01/25 03:01:11;;;;;;;20.65;12.20;;;-2.20;99.90;;;;;;5076867;28;20201;-75
2022/01/25 03:03:38;;;;;;;16.08;12.10;;;-2.20;99.90;;;;;;5066809;28;20198;-75
2022/01/25 03:06:06;;;;;;;17.45;10.82;;;-2.20;99.90;;;;;;5071931;28;20221;-74
2022/01/25 03:08:34;;;;;;;17.08;11.63;;;-2.20;99.90;;;;;;5072340;28;20304;-75
2022/01/25 03:11:01;;;;;;;15.18;11.30;;;-2.20;99.90;;;;;;5071181;28;20216;-74
2022/01/25 03:13:32;;;;;;;17.52;10.82;;;-2.30;99.90;;;;;;5058314;28;20717;-75
2022/01/25 03:16:03;;;;;;;18.42;12.02;;;-2.30;99.90;;;;;;5068451;28;20222;-75
2022/01/25 03:18:43;;;;;;;17.45;11.52;;;-2.30;99.90;;;;;;5055363;28;20201;-75
2022/01/25 03:21:20;;;;;;;13.93;10.90;;;-2.30;99.90;;;;;;5054065;28;20259;-75
2022/01/25 03:23:49;;;;;;;17.48;11.90;;;-2.40;99.90;;;;;;5052815;28;20211;-75
2022/01/25 03:26:16;;;;;;;19.38;11.75;;;-2.40;99.90;;;;;;5053454;28;20221;-75
2022/01/25 03:28:43;;;;;;;18.65;12.23;;;-2.40;99.90;;;;;;5053503;28;20197;-76
2022/01/25 03:31:10;;;;;;;15.38;11.90;;;-2.40;99.90;;;;;;5052964;28;20212;-74
2022/01/25 03:33:37;;;;;;;17.00;11.73;;;-2.50;99.90;;;;;;5053020;28;20220;-75
2022/01/25 03:36:07;;;;;;;20.15;13.05;;;-2.50;99.90;;;;;;5052637;28;20237;-75
2022/01/25 03:38:34;;;;;;;17.33;11.90;;;-2.50;99.90;;;;;;5052481;28;20205;-75
2022/01/25 03:41:03;;;;;;;22.05;12.40;;;-2.50;99.90;;;;;;5053079;28;20212;-75
2022/01/25 03:43:30;;;;;;;17.27;12.52;;;-2.50;99.90;;;;;;5052506;28;20201;-76
2022/01/25 03:46:05;;;;;;;18.98;12.07;;;-2.50;99.90;;;;;;5052890;28;20746;-75
2022/01/25 03:51:16;;;;;;;19.90;13.40;;;-2.50;99.90;;;;;;5053245;28;20243;-75
2022/01/25 03:53:42;;;;;;;16.10;10.57;;;-2.50;99.90;;;;;;5052681;28;20221;-75
2022/01/25 03:56:10;;;;;;;18.52;12.73;;;-2.50;99.90;;;;;;5052696;28;20229;-75
2022/01/25 03:58:37;;;;;;;17.23;12.23;;;-2.50;99.90;;;;;;5052986;28;20672;-75
2022/01/25 04:01:04;;;;;;;19.13;12.10;;;-2.60;99.90;;;;;;5053038;28;20212;-75
2022/01/25 04:03:35;;;;;;;19.92;12.63;;;-2.60;99.90;;;;;;5052549;28;20193;-76
2022/01/25 04:06:03;;;;;;;16.38;12.45;;;-2.60;99.90;;;;;;5053036;28;20231;-75
2022/01/25 04:08:33;;;;;;;19.67;12.93;;;-2.60;99.90;;;;;;5053047;28;20654;-75
2022/01/25 04:11:00;;;;;;;15.90;10.15;;;-2.60;99.90;;;;;;5053452;28;20228;-74
2022/01/25 04:13:28;;;;;;;18.70;12.52;;;-2.60;99.90;;;;;;5053413;28;20197;-75
2022/01/25 04:15:58;;;;;;;17.63;12.93;;;-2.60;99.90;;;;;;5053537;28;20746;-75
2022/01/25 04:18:34;;;;;;;18.85;12.02;;;-2.60;99.90;;;;;;5054267;28;20209;-75
2022/01/25 04:21:11;;;;;;;19.08;11.98;;;-2.60;99.90;;;;;;5053593;28;20638;-74
2022/01/25 04:26:22;;;;;;;14.73;10.98;;;-2.60;99.90;;;;;;5053591;28;20279;-76
2022/01/25 04:28:50;;;;;;;15.77;11.27;;;-2.60;99.90;;;;;;5052801;28;20607;-75
2022/01/25 04:31:19;;;;;;;17.15;12.40;;;-2.60;99.90;;;;;;5053506;28;20205;-75
2022/01/25 04:34:06;;;;;;;15.27;11.25;;;-2.60;99.90;;;;;;5053110;28;20224;-75
2022/01/25 04:48:49;;;;;;;14.40;10.73;;;-2.70;99.90;;;;;;5053855;28;20247;-76
2022/01/25 04:50:47;;;;;;;15.07;11.13;;;-2.80;99.90;;;;;;5054455;28;20300;-77
2022/01/25 04:53:21;;;;;;;15.73;11.38;;;-2.80;99.90;;;;;;5054964;28;20247;-76
2022/01/25 04:55:54;;;;;;;16.50;11.60;;;-2.80;99.90;;;;;;5054254;28;20220;-75
2022/01/25 04:58:27;;;;;;;15.73;12.07;;;-2.70;99.90;;;;;;5054002;28;20225;-75
2022/01/25 05:00:55;;;;;;;23.92;11.57;;;-2.80;99.90;;;;;;5053790;28;20263;-76
2022/01/25 05:03:26;;;;;;;17.85;11.73;;;-2.70;99.90;;;;;;5053214;28;20209;-75
2022/01/25 05:05:58;;;;;;;15.85;10.85;;;-2.70;99.90;;;;;;5052343;28;20747;-75
2022/01/25 05:08:34;;;;;;;21.38;13.52;;;-2.70;99.90;;;;;;5052551;28;20205;-75
2022/01/25 05:11:06;;;;;;;22.67;14.85;;;-2.70;99.90;;;;;;5052766;28;20646;-75
2022/01/25 05:13:43;;;;;;;23.73;14.93;;;-2.70;99.90;;;;;;5052296;28;20243;-74
2022/01/25 05:16:26;;;;;;;20.17;13.50;;;-2.70;99.90;;;;;;5052889;28;20589;-75
2022/01/25 05:19:02;;;;;;;25.10;14.32;;;-2.70;99.90;;;;;;5053608;28;20288;-75
2022/01/25 05:24:14;;;;;;;28.58;17.20;;;-2.70;99.90;;;;;;5052199;28;20478;-73
2022/01/25 05:26:40;;;;;;;23.70;16.13;;;-2.70;99.90;;;;;;5051149;28;20205;-74
2022/01/25 05:29:08;;;;;;;21.63;13.75;;;-2.80;99.90;;;;;;5050242;28;20205;-74
2022/01/25 05:31:37;;;;;;;23.60;15.07;;;-2.80;99.90;;;;;;5048078;28;20231;-74
2022/01/25 05:34:04;;;;;;;22.83;14.15;;;-2.70;99.90;;;;;;5049272;28;20232;-74
2022/01/25 05:36:31;;;;;;;21.55;13.75;;;-2.70;99.90;;;;;;5050570;28;20587;-74
2022/01/25 05:39:01;;;;;;;21.05;12.93;;;-2.70;99.90;;;;;;5050266;28;20254;-74
2022/01/25 05:41:30;;;;;;;20.33;13.25;;;-2.70;99.90;;;;;;5050730;28;20653;-74
2022/01/25 05:46:44;;;;;;;18.05;12.75;;;-2.70;99.90;;;;;;5041425;28;20188;-74
2022/01/25 05:49:11;;;;;;;19.85;13.13;;;-2.70;99.90;;;;;;5050072;28;20288;-74
2022/01/25 05:51:38;;;;;;;23.10;13.60;;;-2.70;99.90;;;;;;5050563;28;20611;-74
2022/01/25 05:54:04;;;;;;;18.25;12.57;;;-2.70;99.90;;;;;;5049266;28;20236;-74
2022/01/25 05:56:31;;;;;;;19.50;13.25;;;-2.80;99.90;;;;;;5050464;28;20695;-74
2022/01/25 05:58:58;;;;;;;18.65;13.25;;;-2.80;99.90;;;;;;5050287;28;20197;-74
2022/01/25 06:01:25;;;;;;;18.95;12.13;;;-2.70;99.90;;;;;;5049674;28;20201;-74
2022/01/25 06:03:54;;;;;;;20.52;13.52;;;-2.70;99.90;;;;;;5049781;28;20593;-74
2022/01/25 06:06:20;;;;;;;21.98;13.60;;;-2.70;99.90;;;;;;5050166;28;20221;-74
2022/01/25 06:08:47;;;;;;;19.30;13.20;;;-2.70;99.90;;;;;;5050205;28;20205;-74
2022/01/25 06:11:14;;;;;;;23.08;12.43;;;-2.70;99.90;;;;;;5050583;28;20211;-74
2022/01/25 06:13:40;;;;;;;18.08;13.15;;;-2.70;99.90;;;;;;5049472;28;20205;-75
2022/01/25 06:16:07;;;;;;;18.88;12.85;;;-2.70;99.90;;;;;;5050310;28;20239;-74
2022/01/25 06:18:34;;;;;;;19.13;13.70;;;-2.70;99.90;;;;;;5050087;28;20212;-74
2022/01/25 06:21:02;;;;;;;20.27;13.18;;;-2.80;99.90;;;;;;5050369;28;20212;-74
2022/01/25 06:23:29;;;;;;;22.08;12.57;;;-2.80;99.90;;;;;;5049784;28;20209;-73
2022/01/25 06:25:56;;;;;;;21.48;13.10;;;-2.80;99.90;;;;;;5049733;28;20634;-74
2022/01/25 06:28:22;;;;;;;21.42;13.05;;;-2.70;99.90;;;;;;5050306;28;20215;-75
2022/01/25 06:30:49;;;;;;;20.20;12.93;;;-2.70;99.90;;;;;;5049741;28;20197;-74
2022/01/25 06:33:16;;;;;;;22.02;13.65;;;-2.80;99.90;;;;;;5049687;28;20201;-74
2022/01/25 06:35:45;;;;;;;20.95;13.35;;;-2.80;99.90;;;;;;5049795;28;20224;-74
2022/01/25 06:38:13;;;;;;;19.17;13.45;;;-2.80;99.90;;;;;;5049771;28;20611;-75
2022/01/25 06:40:40;;;;;;;20.63;13.10;;;-2.80;99.90;;;;;;5050215;28;20197;-73
2022/01/25 06:43:07;;;;;;;17.50;12.65;;;-2.80;99.90;;;;;;5048952;28;20205;-74
2022/01/25 06:45:39;;;;;;;26.05;14.27;;;-2.80;99.90;;;;;;5049968;28;20217;-74
2022/01/25 06:48:06;;;;;;;22.13;14.35;;;-2.80;99.90;;;;;;5050007;28;20578;-74
2022/01/25 06:50:34;;;;;;;19.35;12.32;;;-2.80;99.90;;;;;;5049830;28;20205;-74
2022/01/25 06:53:01;;;;;;;20.13;13.27;;;-2.80;99.90;;;;;;5049417;28;20776;-74
2022/01/25 06:55:29;;;;;;;23.67;14.90;;;-2.90;99.90;;;;;;5049543;28;20229;-73
2022/01/25 06:57:56;;;;;;;21.13;13.45;;;-2.80;99.90;;;;;;5049874;28;20676;-73
2022/01/25 07:00:24;;;;;;;20.67;13.02;;;-2.80;99.90;;;;;;5050252;28;20205;-73
2022/01/25 07:02:51;;;;;;;20.20;12.85;;;-2.80;99.90;;;;;;5048126;28;20207;-73
2022/01/25 07:05:18;;;;;;;22.30;15.35;;;-2.80;99.90;;;;;;5048336;28;20225;-73
2022/01/25 07:07:46;;;;;;;21.42;13.70;;;-2.80;99.90;;;;;;5047219;28;20205;-72
2022/01/25 07:10:13;;;;;;;18.98;13.20;;;-2.80;99.90;;;;;;5048557;28;20205;-73
2022/01/25 07:12:42;;;;;;;22.48;14.13;;;-2.80;99.90;;;;;;5049397;28;20204;-73
2022/01/25 07:15:09;;;;;;;22.00;13.90;;;-2.80;99.90;;;;;;5052748;28;20286;-74
2022/01/25 07:17:36;;;;;;;23.98;14.50;;;-2.80;99.90;;;;;;5053403;28;20228;-74
2022/01/25 07:20:04;;;;;;;20.08;13.15;;;-2.80;99.90;;;;;;5053362;28;20213;-74
2022/01/25 07:22:30;;;;;;;23.05;14.48;;;-2.80;99.90;;;;;;5053582;28;20295;-74
2022/01/25 07:24:57;;;;;;;20.17;13.85;;;-2.70;99.90;;;;;;5052778;28;20625;-74
2022/01/25 07:27:24;;;;;;;24.13;14.07;;;-2.80;99.90;;;;;;5053436;28;20205;-74
2022/01/25 07:29:52;;;;;;;22.58;13.23;;;-2.70;99.90;;;;;;5053231;28;20200;-74
2022/01/25 07:32:19;;;;;;;20.27;13.23;;;-2.60;99.90;;;;;;5053334;28;20208;-73
2022/01/25 07:34:58;;;;;;;19.75;14.05;;;-2.50;99.90;;;;;;5092405;22;20224;-94
2022/01/25 07:37:25;;;;;;;22.42;13.30;;;-2.50;99.90;;;;;;5102261;28;20222;-94
2022/01/25 07:39:52;;;;;;;20.92;13.07;;;-2.50;99.90;;;;;;5110429;28;20259;-94
2022/01/25 07:49:19;;;;;;;21.17;12.60;;;-2.40;99.90;;;;;;5137555;28;20174;-94
2022/01/25 07:55:16;;;;;;;20.95;12.60;;;-2.30;99.90;;;;;;5104207;28;20235;-93
2022/01/25 07:57:49;;;;;;;21.52;12.82;;;-2.30;99.90;;;;;;5120490;28;20203;-94
2022/01/25 08:00:20;;;;;;;17.98;12.82;;;-2.20;99.90;;;;;;5120924;28;20260;-93
2022/01/25 08:05:38;;;;;;;17.08;12.70;;;-1.30;99.90;;;;;;5084078;22;20235;-76
2022/01/25 08:08:05;;;;;;;15.85;11.55;;;-0.50;99.90;;;;;;5052904;28;20197;-74
2022/01/25 08:10:32;;;;;;;19.30;12.98;;;0.00;99.90;;;;;;5052400;28;20651;-74
2022/01/25 08:12:59;;;;;;;17.65;12.20;;;0.50;99.90;;;;;;5051416;28;20288;-74
2022/01/25 08:15:26;;;;;;;19.77;13.02;;;1.00;99.90;;;;;;5052120;28;20313;-75
2022/01/25 08:17:53;;;;;;;22.80;14.07;;;1.20;99.90;;;;;;5052086;28;20254;-74
2022/01/25 08:20:20;;;;;;;20.08;13.70;;;1.40;99.90;;;;;;5052048;28;20629;-73
2022/01/25 08:22:50;;;;;;;18.33;12.35;;;1.70;99.90;;;;;;5051925;28;20259;-75
2022/01/25 08:25:19;;;;;;;18.42;13.38;;;1.90;99.90;;;;;;5050979;28;20217;-73
2022/01/25 08:27:46;;;;;;;18.23;13.57;;;2.70;99.90;;;;;;5051483;28;20695;-76
2022/01/25 08:30:14;;;;;;;23.30;13.10;;;3.60;99.90;;;;;;5051644;28;20215;-74
2022/01/25 08:32:41;;;;;;;14.90;11.32;;;4.70;99.90;;;;;;5051053;28;20201;-74
2022/01/25 08:35:09;;;;;;;14.90;11.10;;;5.60;99.90;;;;;;5052339;28;20660;-73
2022/01/25 08:37:36;;;;;;;15.57;10.80;;;6.10;99.90;;;;;;5051894;28;20294;-73
2022/01/25 08:40:06;;;;;;;16.40;11.70;;;6.50;99.90;;;;;;5052166;28;20680;-74
2022/01/25 08:42:33;;;;;;;27.52;16.52;;;7.00;99.90;;;;;;5051704;28;20635;-74
2022/01/25 08:45:00;;;;;;;28.27;18.75;;;7.60;99.90;;;;;;5052271;28;20228;-74
2022/01/25 08:47:27;;;;;;;40.60;24.73;;;8.30;99.90;;;;;;5052084;28;20216;-74
2022/01/25 08:49:56;;;;;;;28.92;19.55;;;9.20;99.90;;;;;;5052232;28;20714;-74
2022/01/25 08:52:23;;;;;;;24.08;16.13;;;10.30;99.20;;;;;;5054785;28;20227;-74
2022/01/25 08:54:49;;;;;;;15.25;12.88;;;11.70;97.40;;;;;;5070834;28;20220;-74
2022/01/25 08:57:17;;;;;;;15.77;12.18;;;12.90;95.30;;;;;;5071230;28;20208;-74
2022/01/25 08:59:45;;;;;;;16.08;12.20;;;13.80;94.20;;;;;;5071239;28;20207;-75
2022/01/25 09:02:12;;;;;;;15.15;11.93;;;14.40;92.90;;;;;;5069706;28;20262;-74
2022/01/25 09:04:41;;;;;;;15.48;12.57;;;15.20;91.90;;;;;;5070437;28;20232;-74
2022/01/25 09:07:08;;;;;;;13.35;11.55;;;16.10;90.30;;;;;;5069646;28;20726;-74
2022/01/25 09:09:35;;;;;;;15.30;12.43;;;16.90;88.80;;;;;;5070221;28;20211;-74
2022/01/25 09:12:02;;;;;;;15.43;12.83;;;17.90;86.60;;;;;;5066365;28;20459;-74
2022/01/25 09:14:30;;;;;;;14.80;12.77;;;19.00;84.70;;;;;;5050119;28;20838;-75
2022/01/25 09:16:56;;;;;;;19.53;13.37;;;19.90;82.00;;;;;;5049856;28;20495;-74
2022/01/25 09:19:23;;;;;;;15.80;14.00;;;20.60;79.80;;;;;;5042569;28;20857;-74
2022/01/25 09:21:50;;;;;;;14.00;12.50;;;20.70;78.10;;;;;;5048940;28;20464;-74
2022/01/25 09:24:17;;;;;;;14.90;13.30;;;21.20;77.60;;;;;;5048908;28;20466;-74
2022/01/25 09:26:44;;;;;;;14.67;13.27;;;21.70;76.50;;;;;;5049963;28;20467;-75
2022/01/25 09:29:10;;;;;;;15.67;13.70;;;22.20;75.10;;;;;;5050394;28;20459;-75
2022/01/25 09:31:38;;;;;;;14.30;12.40;;;22.50;74.40;;;;;;5049823;28;20470;-75
2022/01/25 09:34:05;;;;;;;15.30;12.87;;;22.40;74.50;;;;;;5049365;28;20471;-73
2022/01/25 09:36:33;;;;;;;13.70;11.37;;;22.60;73.30;;;;;;5048472;28;20498;-74
2022/01/25 09:39:00;;;;;;;16.10;12.37;;;23.10;72.20;;;;;;5049483;28;20460;-74
2022/01/25 09:41:28;;;;;;;15.17;12.37;;;23.20;71.20;;;;;;5049707;28;20869;-75
2022/01/25 09:43:55;;;;;;;12.63;11.33;;;23.30;70.60;;;;;;5049191;28;20470;-75
2022/01/25 09:46:22;;;;;;;13.83;12.53;;;23.10;71.70;;;;;;5049158;28;20486;-75
2022/01/25 09:48:51;;;;;;;13.73;12.43;;;22.80;73.10;;;;;;5049436;28;20462;-74
2022/01/25 09:51:20;;;;;;;24.23;15.90;;;22.10;72.50;;;;;;5049951;28;20463;-74
2022/01/25 09:53:47;;;;;;;13.70;12.30;;;21.60;73.00;;;;;;5048967;28;20562;-73
2022/01/25 09:56:14;;;;;;;15.33;13.73;;;21.80;73.70;;;;;;5049173;28;20494;-74
2022/01/25 10:01:50;;;;;;;14.87;13.33;;;22.60;71.60;;;;;;5074457;28;20458;-92
2022/01/25 10:04:31;;;;;;;15.00;12.10;;;22.60;73.70;;;;;;5081732;22;20484;-75
2022/01/25 10:06:58;;;;;;;14.83;12.90;;;21.40;73.40;;;;;;5048354;28;21111;-75
2022/01/25 10:09:26;;;;;;;16.23;13.30;;;21.40;74.50;;;;;;5049642;28;20467;-75
2022/01/25 10:11:52;;;;;;;15.50;13.83;;;21.50;74.30;;;;;;5055089;28;20569;-75
2022/01/25 10:14:23;;;;;;;14.23;12.87;;;20.90;73.40;;;;;;5046629;28;20846;-75
2022/01/25 10:16:53;;;;;;;14.20;12.70;;;20.80;74.50;;;;;;5029916;28;20456;-75
2022/01/25 10:19:25;;;;;;;14.67;13.23;;;20.80;73.90;;;;;;5029356;28;20460;-76
2022/01/25 10:21:53;;;;;;;13.53;12.13;;;21.00;73.30;;;;;;5030012;28;20472;-76
2022/01/25 10:24:22;;;;;;;14.80;12.87;;;21.10;75.40;;;;;;5027081;28;20515;-76
2022/01/25 10:26:50;;;;;;;15.10;13.53;;;21.60;73.50;;;;;;5029057;28;20487;-76
2022/01/25 10:29:20;;;;;;;12.97;11.67;;;21.90;73.60;;;;;;5028995;28;20457;-76
2022/01/25 10:31:50;;;;;;;13.73;12.43;;;22.20;72.60;;;;;;5029516;28;21002;-75
2022/01/25 10:34:20;;;;;;;16.10;12.80;;;22.20;73.10;;;;;;5028930;28;20852;-75
2022/01/25 10:36:50;;;;;;;14.07;12.63;;;22.30;73.10;;;;;;5028778;28;20825;-76
2022/01/25 10:39:26;;;;;;;13.70;12.40;;;22.60;72.30;;;;;;5028654;28;20464;-75
2022/01/25 10:42:03;;;;;;;13.13;11.73;;;23.00;72.10;;;;;;5029149;28;20478;-75
2022/01/25 10:44:45;;;;;;;14.33;13.00;;;22.80;72.20;;;;;;5029140;28;20493;-75
2022/01/25 10:47:12;;;;;;;13.03;11.73;;;23.10;71.30;;;;;;5029377;28;20488;-75
2022/01/25 10:49:45;;;;;;;14.67;13.17;;;22.90;71.90;;;;;;5033484;28;20460;-75
2022/01/25 10:52:12;;;;;;;13.20;11.87;;;23.30;71.50;;;;;;5032379;28;20470;-75
2022/01/25 10:54:41;;;;;;;13.40;12.10;;;23.40;70.80;;;;;;5032977;28;20484;-75
2022/01/25 10:57:18;;;;;;;14.00;12.50;;;23.10;71.90;;;;;;5032342;28;20456;-76
2022/01/25 10:59:57;;;;;;;15.43;13.73;;;22.40;72.60;;;;;;5032723;28;20491;-76
2022/01/25 11:02:24;;;;;;;14.00;12.40;;;23.00;73.00;;;;;;5032441;28;20530;-76
2022/01/25 11:04:52;;;;;;;15.17;13.57;;;23.90;70.60;;;;;;5032328;28;20484;-76
2022/01/25 11:07:19;;;;;;;13.77;12.37;;;24.20;69.90;;;;;;5032334;28;20894;-76
2022/01/25 11:09:48;;;;;;;14.43;12.43;;;24.10;70.50;;;;;;5032877;28;20472;-76
2022/01/25 11:12:18;;;;;;;13.97;12.53;;;24.40;69.30;;;;;;5034764;28;20547;-76
2022/01/25 11:14:53;;;;;;;14.87;13.37;;;23.50;70.20;;;;;;5044306;28;20471;-76
2022/01/25 11:17:21;;;;;;;14.17;12.67;;;23.60;69.20;;;;;;5051200;28;20463;-74
2022/01/25 11:19:48;;;;;;;14.93;13.53;;;23.20;70.90;;;;;;5052697;28;20459;-75
2022/01/25 11:22:19;;;;;;;13.77;12.27;;;21.90;70.80;;;;;;5051510;28;20464;-75
2022/01/25 11:24:50;;;;;;;15.13;13.60;;;22.50;71.30;;;;;;5052554;28;20558;-75
2022/01/25 11:27:19;;;;;;;15.00;13.47;;;22.10;72.40;;;;;;5052115;28;20485;-74
2022/01/25 11:29:48;;;;;;;16.00;14.33;;;21.80;71.80;;;;;;5052366;28;20460;-75
2022/01/25 11:32:20;;;;;;;16.20;14.50;;;21.20;73.10;;;;;;5052331;28;20502;-74
2022/01/25 11:34:48;;;;;;;17.30;15.30;;;20.80;73.20;;;;;;5053236;28;20657;-74
2022/01/25 11:37:15;;;;;;;16.27;14.57;;;21.00;72.70;;;;;;5051780;28;20459;-74
2022/01/25 11:39:44;;;;;;;17.17;15.40;;;21.30;72.80;;;;;;5052649;28;20482;-74
2022/01/25 11:42:14;;;;;;;17.50;15.30;;;21.10;72.30;;;;;;5051970;28;20471;-74
2022/01/25 11:44:48;;;;;;;18.17;15.77;;;21.40;71.40;;;;;;5052406;28;20483;-74
2022/01/25 11:47:17;;;;;;;18.30;16.40;;;21.30;71.70;;;;;;5051626;28;20510;-74
2022/01/25 11:49:54;;;;;;;17.13;15.33;;;20.70;73.00;;;;;;5053026;28;20452;-74
2022/01/25 11:52:24;;;;;;;19.57;15.70;;;20.20;73.10;;;;;;5051677;28;20487;-74
2022/01/25 11:54:53;;;;;;;18.00;15.80;;;19.80;73.70;;;;;;5052002;28;20475;-74
2022/01/25 11:57:24;;;;;;;17.47;15.10;;;19.90;73.60;;;;;;5051170;28;20463;-75
2022/01/25 11:59:54;;;;;;;16.37;14.37;;;19.60;73.90;;;;;;5050734;28;20539;-74
2022/01/25 12:02:38;;;;;;;19.43;15.70;;;19.80;74.50;;;;;;5051773;28;20468;-74
2022/01/25 12:05:05;;;;;;;18.50;16.40;;;20.10;74.10;;;;;;5051163;28;20487;-74
2022/01/25 12:07:39;;;;;;;18.17;15.07;;;19.90;74.30;;;;;;5051286;28;20491;-74
2022/01/25 12:10:36;;;;;;;17.30;15.47;;;19.50;74.90;;;;;;5052211;28;20517;-74
2022/01/25 12:13:15;;;;;;;21.00;16.30;;;19.40;75.30;;;;;;5044607;28;20967;-74
2022/01/25 12:15:43;;;;;;;22.13;16.97;;;19.60;74.90;;;;;;5029067;28;20487;-74
2022/01/25 12:18:11;;;;;;;17.87;16.07;;;19.50;74.70;;;;;;5031954;28;20479;-74
2022/01/25 12:20:49;;;;;;;17.70;15.90;;;19.30;74.80;;;;;;5031615;28;21122;-74
2022/01/25 12:23:19;;;;;;;19.90;15.30;;;18.80;75.00;;;;;;5026867;28;20455;-74
2022/01/25 12:25:52;;;;;;;17.50;15.20;;;18.80;76.00;;;;;;5029815;28;20555;-74
2022/01/25 12:28:27;;;;;;;18.47;16.50;;;18.50;76.10;;;;;;5030312;28;20510;-74
2022/01/25 12:30:54;;;;;;;19.40;15.67;;;18.20;76.30;;;;;;5031373;28;20466;-74
2022/01/25 12:33:23;;;;;;;19.73;16.43;;;18.10;76.90;;;;;;5030389;28;20866;-74
2022/01/25 12:35:52;;;;;;;17.57;15.83;;;17.90;77.10;;;;;;5030268;28;20483;-74
2022/01/25 12:38:23;;;;;;;18.90;16.90;;;17.40;77.80;;;;;;5030225;28;20468;-74
2022/01/25 12:40:57;;;;;;;17.60;15.80;;;17.00;78.60;;;;;;5031036;28;20506;-74
2022/01/25 12:43:27;;;;;;;23.37;18.03;;;16.90;78.90;;;;;;5030268;28;20499;-74
2022/01/25 12:45:58;;;;;;;19.13;17.03;;;16.70;79.50;;;;;;5030562;28;20756;-74
2022/01/25 12:48:28;;;;;;;20.03;17.80;;;16.30;80.40;;;;;;5030484;28;20467;-74
2022/01/25 12:50:59;;;;;;;21.03;18.73;;;15.80;81.20;;;;;;5030422;28;21029;-73
2022/01/25 12:53:28;;;;;;;21.90;18.20;;;15.30;82.50;;;;;;5028990;28;20530;-74
2022/01/25 12:56:01;;;;;;;21.93;18.37;;;15.10;82.90;;;;;;5031539;28;20487;-74
2022/01/25 12:58:30;;;;;;;21.40;17.80;;;15.10;83.20;;;;;;5031326;28;20464;-74
2022/01/25 13:00:58;;;;;;;22.43;17.87;;;15.20;83.10;;;;;;5031498;28;20467;-74
2022/01/25 13:03:29;;;;;;;19.73;17.48;;;15.10;83.20;;;;;;5030345;28;20472;-74
2022/01/25 13:05:58;;;;;;;25.05;17.83;;;15.10;83.50;;;;;;5030715;28;20230;-74
2022/01/25 13:08:29;;;;;;;24.97;20.90;;;15.10;83.70;;;;;;5030798;28;20697;-74
2022/01/25 13:11:18;;;;;;;22.08;18.13;;;15.30;83.50;;;;;;5030718;28;20475;-75
2022/01/25 13:13:57;;;;;;;23.40;18.37;;;14.80;84.10;;;;;;5030793;28;20217;-74
2022/01/25 13:16:38;;;;;;;22.77;19.48;;;14.50;84.90;;;;;;5031063;28;20882;-75
2022/01/25 13:19:06;;;;;;;23.85;19.23;;;14.10;85.60;;;;;;5031188;28;20234;-75
2022/01/25 13:21:39;;;;;;;22.67;18.60;;;13.90;86.30;;;;;;5031277;28;20201;-75
2022/01/25 13:24:09;;;;;;;22.52;17.40;;;13.90;86.30;;;;;;5030155;28;20209;-75
2022/01/25 13:26:42;;;;;;;23.13;17.45;;;13.70;86.50;;;;;;5031084;28;20225;-75
2022/01/25 13:32:10;;;;;;;20.05;17.45;;;13.70;86.30;;;;;;5031145;28;20287;-75
2022/01/25 13:37:21;;;;;;;25.35;18.35;;;13.40;86.50;;;;;;5048400;28;20250;-73
2022/01/25 13:39:57;;;;;;;18.50;16.15;;;13.50;86.60;;;;;;5050222;28;20694;-72
2022/01/25 13:42:36;;;;;;;21.05;16.50;;;13.40;86.30;;;;;;5050324;28;20215;-72
2022/01/25 13:48:03;;;;;;;20.27;15.55;;;13.20;86.90;;;;;;5050446;28;20228;-74
2022/01/25 13:50:32;;;;;;;22.83;17.40;;;13.10;87.30;;;;;;5050391;28;20201;-74
2022/01/25 13:52:58;;;;;;;19.92;16.00;;;13.10;87.50;;;;;;5049749;28;20572;-74
2022/01/25 13:55:25;;;;;;;18.60;15.63;;;13.10;87.60;;;;;;5050320;28;20221;-74
2022/01/25 13:57:53;;;;;;;20.40;15.98;;;13.10;87.70;;;;;;5049902;28;20220;-73
2022/01/25 14:00:21;;;;;;;18.90;15.68;;;13.00;87.90;;;;;;5050394;28;20212;-73
2022/01/25 14:02:50;;;;;;;18.30;14.98;;;12.80;87.80;;;;;;5049493;28;20223;-73
2022/01/25 14:05:17;;;;;;;20.58;17.02;;;12.50;88.50;;;;;;5050369;28;20241;-72
2022/01/25 14:07:48;;;;;;;20.42;16.63;;;12.00;89.50;;;;;;5050074;28;20224;-72
2022/01/25 14:10:22;;;;;;;22.58;18.02;;;11.30;90.50;;;;;;5050328;28;20228;-71
2022/01/25 14:23:45;;;;;;;22.10;17.15;;;8.40;94.30;;;;;;5052936;28;20237;-72
2022/01/25 14:26:12;;;;;;;22.02;17.55;;;8.10;95.20;;;;;;5054289;28;20235;-72
2022/01/25 14:28:42;;;;;;;21.65;16.65;;;7.90;95.30;;;;;;5049909;28;20212;-72
2022/01/25 14:31:17;;;;;;;23.08;17.40;;;7.60;95.80;;;;;;5052876;28;20211;-72
2022/01/25 14:33:52;;;;;;;24.67;17.30;;;7.40;96.00;;;;;;5053110;28;20206;-72
2022/01/25 14:36:19;;;;;;;24.98;17.70;;;7.00;96.40;;;;;;5052143;28;20232;-72
2022/01/25 14:38:47;;;;;;;23.05;17.98;;;6.80;97.00;;;;;;5053365;28;20208;-72